Time;durP1;ratioP1;P1;durP2;ratioP2;P2;SDS_P1;SDS_P2;PMS_P1;PMS_P2;Temp;Humidity;BMP_temperature;BMP_pressure;BME280_temperature;BME280_humidity;BME280_pressure;Samples;Min_cycle;Max_cycle;Signal;HPM_P1;HPM_P2
2021/08/08 00:01:34;;;;;;;6.53;2.50;;;17.20;99.80;;;;;;6082520;23;20975;-89
2021/08/08 00:04:03;;;;;;;3.37;2.70;;;17.20;99.80;;;;;;6084124;23;20481;-89
2021/08/08 00:06:38;;;;;;;3.60;2.10;;;17.10;99.80;;;;;;6083748;23;20449;-89
2021/08/08 00:09:08;;;;;;;2.30;2.10;;;17.10;99.80;;;;;;6073060;23;20476;-89
2021/08/08 00:11:37;;;;;;;2.70;2.50;;;17.10;99.80;;;;;;6070503;23;21431;-89
2021/08/08 00:14:48;;;;;;;2.50;2.03;;;17.00;99.80;;;;;;6069763;23;20461;-89
2021/08/08 00:17:16;;;;;;;2.57;2.13;;;17.00;99.80;;;;;;6066609;23;20448;-90
2021/08/08 00:19:45;;;;;;;2.47;2.27;;;;;;;;;;6082379;23;20445;-89
2021/08/08 00:22:13;;;;;;;2.30;2.10;;;;;;;;;;6068612;23;20464;-90
2021/08/08 00:24:46;;;;;;;3.00;2.20;;;17.00;99.80;;;;;;6072753;23;20438;-89
2021/08/08 00:27:14;;;;;;;2.00;1.90;;;17.00;99.80;;;;;;6084731;23;20776;-90
2021/08/08 00:29:42;;;;;;;2.50;2.30;;;17.00;99.80;;;;;;6089326;23;20447;-90
2021/08/08 00:32:12;;;;;;;2.20;2.00;;;17.00;99.80;;;;;;6084340;23;20437;-90
2021/08/08 00:34:40;;;;;;;4.90;2.60;;;;;;;;;;6086778;23;20445;-89
2021/08/08 00:37:08;;;;;;;2.37;2.17;;;16.90;99.80;;;;;;6082529;23;20444;-90
2021/08/08 00:39:37;;;;;;;2.33;2.10;;;16.90;99.80;;;;;;6077680;23;20438;-90
2021/08/08 00:42:06;;;;;;;8.83;1.93;;;16.90;99.80;;;;;;6064839;23;20966;-89
2021/08/08 00:44:34;;;;;;;3.00;2.20;;;16.90;99.80;;;;;;6086948;23;20437;-89
2021/08/08 00:47:02;;;;;;;2.00;1.90;;;16.90;99.80;;;;;;6083002;23;20443;-89
2021/08/08 00:49:30;;;;;;;2.17;1.97;;;17.00;99.80;;;;;;6082381;23;20434;-89
2021/08/08 00:51:58;;;;;;;3.73;2.33;;;17.00;99.80;;;;;;6062197;23;20468;-89
2021/08/08 00:54:26;;;;;;;1.90;1.80;;;17.00;99.80;;;;;;6063801;23;20943;-89
2021/08/08 00:56:54;;;;;;;2.90;2.17;;;17.00;99.80;;;;;;6081637;23;20536;-89
2021/08/08 00:59:24;;;;;;;1.93;1.83;;;17.00;99.80;;;;;;6060345;23;20446;-89
2021/08/08 01:01:54;;;;;;;2.20;1.90;;;17.00;99.80;;;;;;6083889;23;20437;-89
2021/08/08 01:04:28;;;;;;;2.23;2.03;;;16.90;99.80;;;;;;6080382;23;20449;-89
2021/08/08 01:07:03;;;;;;;1.93;1.80;;;16.80;99.80;;;;;;6076813;23;20437;-89
2021/08/08 01:09:34;;;;;;;4.63;1.90;;;16.80;99.80;;;;;;6079135;23;20447;-89
2021/08/08 01:12:03;;;;;;;2.73;2.00;;;16.80;99.80;;;;;;6078053;23;20441;-89
2021/08/08 01:14:33;;;;;;;2.07;1.87;;;16.70;99.80;;;;;;6087435;23;20442;-90
2021/08/08 01:17:04;;;;;;;2.00;1.90;;;16.60;99.80;;;;;;6090868;23;20456;-89
2021/08/08 01:19:36;;;;;;;2.60;2.40;;;16.60;99.80;;;;;;6076828;23;20442;-89
2021/08/08 01:22:06;;;;;;;7.40;2.17;;;16.50;99.80;;;;;;6097438;23;21386;-89
2021/08/08 01:24:36;;;;;;;2.07;1.90;;;16.60;99.80;;;;;;6100885;23;20447;-89
2021/08/08 01:27:05;;;;;;;2.53;2.20;;;16.60;99.80;;;;;;6103181;23;20520;-89
2021/08/08 01:29:34;;;;;;;2.50;1.97;;;16.70;99.80;;;;;;6107553;23;20767;-89
2021/08/08 01:32:03;;;;;;;1.40;1.30;;;16.70;99.80;;;;;;6108431;23;21093;-89
2021/08/08 01:34:31;;;;;;;1.83;1.70;;;16.60;99.80;;;;;;6109526;23;20965;-89
2021/08/08 01:36:59;;;;;;;3.13;1.73;;;;;;;;;;6092621;23;20499;-89
2021/08/08 01:39:30;;;;;;;1.70;1.60;;;16.70;99.80;;;;;;6104632;23;20432;-89
2021/08/08 01:42:04;;;;;;;1.97;1.77;;;16.60;99.80;;;;;;6107991;23;20462;-89
2021/08/08 01:44:37;;;;;;;1.67;1.57;;;16.60;99.80;;;;;;6116674;23;20437;-89
2021/08/08 01:47:06;;;;;;;2.97;1.80;;;16.60;99.80;;;;;;6118061;23;20444;-89
2021/08/08 01:49:35;;;;;;;1.70;1.53;;;16.60;99.80;;;;;;6116885;23;20446;-89
2021/08/08 01:52:03;;;;;;;2.23;1.30;;;16.60;99.80;;;;;;6080344;23;20440;-89
2021/08/08 01:54:32;;;;;;;2.00;1.80;;;16.50;99.80;;;;;;6081499;23;20453;-89
2021/08/08 01:57:01;;;;;;;3.30;1.73;;;16.50;99.80;;;;;;6076694;23;20437;-89
2021/08/08 01:59:30;;;;;;;2.50;1.67;;;;;;;;;;6084939;23;20929;-89
2021/08/08 02:02:09;;;;;;;5.43;1.97;;;16.50;99.80;;;;;;6094766;23;21163;-89
2021/08/08 02:04:39;;;;;;;2.10;1.90;;;16.40;99.80;;;;;;6096609;23;20413;-90
2021/08/08 02:07:09;;;;;;;1.80;1.70;;;16.40;99.80;;;;;;6123844;23;20423;-89
2021/08/08 02:09:37;;;;;;;2.20;1.73;;;16.40;99.80;;;;;;6125909;23;20438;-90
2021/08/08 02:12:08;;;;;;;5.03;1.80;;;16.30;99.80;;;;;;6125695;23;20519;-90
2021/08/08 02:14:36;;;;;;;5.70;1.90;;;16.30;99.80;;;;;;6126340;23;20423;-89
2021/08/08 02:17:05;;;;;;;2.10;1.90;;;16.30;99.80;;;;;;6125845;23;20440;-91
2021/08/08 02:19:34;;;;;;;2.03;1.83;;;16.20;99.80;;;;;;6125899;23;20808;-89
2021/08/08 02:22:03;;;;;;;3.50;2.23;;;16.20;99.80;;;;;;6125956;23;20927;-90
2021/08/08 02:24:31;;;;;;;2.13;1.87;;;16.20;99.80;;;;;;6125676;23;20415;-90
2021/08/08 02:27:00;;;;;;;1.63;1.47;;;16.20;99.80;;;;;;6125748;23;20417;-90
2021/08/08 02:29:32;;;;;;;2.23;2.03;;;16.10;99.80;;;;;;6125785;23;20423;-90
2021/08/08 02:32:00;;;;;;;2.60;1.93;;;16.10;99.80;;;;;;6125655;23;20528;-90
2021/08/08 02:34:29;;;;;;;4.73;2.10;;;16.00;99.80;;;;;;6088681;23;20448;-90
2021/08/08 02:36:57;;;;;;;5.63;1.90;;;;;;;;;;6106964;23;20857;-91
2021/08/08 02:39:25;;;;;;;2.40;1.90;;;16.00;99.80;;;;;;6105633;23;20438;-91
2021/08/08 02:41:53;;;;;;;3.40;2.20;;;15.90;99.80;;;;;;6100595;23;20433;-90
2021/08/08 02:44:21;;;;;;;2.53;2.33;;;;;;;;;;6083921;23;20441;-91
2021/08/08 02:46:50;;;;;;;4.87;2.10;;;15.70;99.80;;;;;;6080472;23;20761;-89
2021/08/08 02:49:19;;;;;;;5.93;2.27;;;15.80;99.80;;;;;;6067194;23;20446;-90
2021/08/08 02:51:47;;;;;;;2.90;2.50;;;15.60;99.80;;;;;;6056099;23;21139;-90
2021/08/08 02:54:15;;;;;;;7.43;2.23;;;15.60;99.80;;;;;;6090979;23;20446;-90
2021/08/08 02:56:44;;;;;;;2.90;2.10;;;15.60;99.80;;;;;;6098397;23;20787;-91
2021/08/08 02:59:11;;;;;;;4.10;2.33;;;15.60;99.80;;;;;;6106821;23;20483;-90
2021/08/08 03:01:40;;;;;;;5.23;2.50;;;15.60;99.80;;;;;;6103300;23;20441;-90
2021/08/08 03:04:10;;;;;;;2.50;2.30;;;15.60;99.80;;;;;;6092471;23;20445;-90
2021/08/08 03:06:38;;;;;;;2.50;2.30;;;15.60;99.80;;;;;;6098837;23;20438;-90
2021/08/08 03:09:09;;;;;;;2.57;2.20;;;15.60;99.80;;;;;;6103925;23;20523;-91
2021/08/08 03:11:37;;;;;;;2.63;2.43;;;;;;;;;;6107317;23;20494;-90
2021/08/08 03:14:05;;;;;;;2.23;2.03;;;15.60;99.80;;;;;;6113978;23;20518;-90
2021/08/08 03:16:33;;;;;;;2.50;2.30;;;15.60;99.80;;;;;;6103114;23;20485;-90
2021/08/08 03:19:01;;;;;;;3.30;2.53;;;15.60;99.80;;;;;;6114304;23;20440;-90
2021/08/08 03:21:31;;;;;;;2.57;2.37;;;15.60;99.80;;;;;;6111897;23;20441;-90
2021/08/08 03:23:59;;;;;;;3.10;2.70;;;15.60;99.80;;;;;;6113223;23;20510;-90
2021/08/08 03:26:27;;;;;;;3.50;1.90;;;15.60;99.80;;;;;;6111504;23;20447;-90
2021/08/08 03:28:55;;;;;;;2.50;2.30;;;;;;;;;;6116612;23;20442;-91
2021/08/08 03:31:23;;;;;;;6.40;3.00;;;15.70;99.80;;;;;;6118746;23;20446;-90
2021/08/08 03:33:51;;;;;;;7.37;3.07;;;;;;;;;;6116044;23;20471;-90
2021/08/08 03:36:19;;;;;;;3.43;2.37;;;15.80;99.80;;;;;;6102140;23;20443;-90
2021/08/08 03:38:49;;;;;;;3.60;3.07;;;15.80;99.80;;;;;;6110533;23;20435;-91
2021/08/08 03:41:17;;;;;;;2.57;2.37;;;15.80;99.80;;;;;;6109632;23;20436;-90
2021/08/08 03:43:45;;;;;;;3.07;2.77;;;15.80;99.80;;;;;;6108877;23;20446;-91
2021/08/08 03:46:13;;;;;;;2.73;2.50;;;15.80;99.80;;;;;;6108200;23;20778;-90
2021/08/08 03:48:41;;;;;;;2.77;2.53;;;15.90;99.80;;;;;;6111740;23;20435;-91
2021/08/08 03:51:10;;;;;;;5.80;2.50;;;;;;;;;;6097796;23;20442;-91
2021/08/08 03:53:38;;;;;;;3.03;2.53;;;;;;;;;;6104756;23;20803;-90
2021/08/08 03:56:07;;;;;;;3.83;3.43;;;15.90;99.80;;;;;;6070194;23;20433;-91
2021/08/08 03:58:35;;;;;;;2.53;2.33;;;15.90;99.80;;;;;;6116541;23;20442;-91
2021/08/08 04:01:04;;;;;;;2.70;2.50;;;15.90;99.80;;;;;;6080076;23;20445;-91
2021/08/08 04:03:34;;;;;;;3.07;2.37;;;16.00;99.80;;;;;;6112614;23;20787;-91
2021/08/08 04:06:02;;;;;;;3.03;2.40;;;16.00;99.80;;;;;;6109034;23;20442;-89
2021/08/08 04:08:30;;;;;;;3.83;2.90;;;16.00;99.80;;;;;;6097718;23;20792;-90
2021/08/08 04:10:59;;;;;;;5.17;2.60;;;16.00;99.80;;;;;;6045496;23;20791;-89
2021/08/08 04:13:29;;;;;;;10.20;2.83;;;16.00;99.80;;;;;;6107353;23;20444;-91
2021/08/08 04:15:57;;;;;;;6.73;3.10;;;16.10;99.80;;;;;;6115778;23;20506;-89
2021/08/08 04:18:25;;;;;;;3.80;2.70;;;;;;;;;;6090201;23;21162;-90
2021/08/08 04:20:53;;;;;;;3.60;3.13;;;16.10;99.80;;;;;;6102182;23;20439;-90
2021/08/08 04:23:21;;;;;;;3.27;2.63;;;16.20;99.80;;;;;;6102879;23;20453;-89
2021/08/08 04:25:49;;;;;;;2.80;2.60;;;16.20;99.80;;;;;;6092787;23;20444;-89
2021/08/08 04:28:17;;;;;;;2.67;2.47;;;16.30;99.80;;;;;;6072688;23;20520;-91
2021/08/08 04:30:47;;;;;;;2.87;2.67;;;16.30;99.80;;;;;;6105111;23;20930;-89
2021/08/08 04:33:15;;;;;;;3.47;2.90;;;16.30;99.80;;;;;;6109704;23;20520;-90
2021/08/08 04:35:43;;;;;;;3.50;2.40;;;;;;;;;;6103969;23;20439;-90
2021/08/08 04:38:11;;;;;;;3.50;2.53;;;16.30;99.80;;;;;;6094134;23;20440;-84
2021/08/08 04:40:39;;;;;;;2.43;2.23;;;;;;;;;;6107540;23;20446;-84
2021/08/08 04:43:07;;;;;;;1.83;1.73;;;16.30;99.80;;;;;;6112457;23;20448;-84
2021/08/08 04:45:35;;;;;;;2.83;2.10;;;16.30;99.80;;;;;;6102119;23;20436;-87
2021/08/08 04:48:05;;;;;;;3.57;1.67;;;16.30;99.80;;;;;;6108600;23;20495;-87
2021/08/08 04:50:33;;;;;;;1.93;1.83;;;16.30;99.80;;;;;;6103770;23;20771;-86
2021/08/08 04:53:01;;;;;;;3.67;1.97;;;16.30;99.80;;;;;;6103048;23;20437;-86
2021/08/08 04:55:29;;;;;;;2.20;1.90;;;16.30;99.80;;;;;;6104977;23;20447;-86
2021/08/08 04:57:57;;;;;;;1.80;1.70;;;;;;;;;;6119485;23;20436;-86
2021/08/08 05:00:25;;;;;;;3.80;2.47;;;16.30;99.80;;;;;;6117733;23;20921;-87
2021/08/08 05:02:54;;;;;;;2.40;1.50;;;16.20;99.80;;;;;;6097187;23;20461;-87
2021/08/08 05:05:24;;;;;;;1.97;1.83;;;16.20;99.80;;;;;;6100052;23;20432;-86
2021/08/08 05:07:52;;;;;;;3.40;2.10;;;16.20;99.80;;;;;;6090575;23;20525;-87
2021/08/08 05:10:24;;;;;;;1.83;1.73;;;16.20;99.80;;;;;;6089263;23;20445;-86
2021/08/08 05:12:53;;;;;;;2.83;1.67;;;16.30;99.80;;;;;;6089835;23;20497;-86
2021/08/08 05:15:21;;;;;;;3.63;2.20;;;16.20;99.80;;;;;;6090040;23;20438;-86
2021/08/08 05:17:53;;;;;;;2.13;1.93;;;16.20;99.80;;;;;;6090547;23;20436;-86
2021/08/08 05:20:21;;;;;;;2.20;1.63;;;16.20;99.80;;;;;;6089656;23;20430;-87
2021/08/08 05:22:50;;;;;;;2.93;1.93;;;16.10;99.80;;;;;;6089723;23;20437;-86
2021/08/08 05:25:19;;;;;;;2.50;2.03;;;;;;;;;;6089791;23;20417;-87
2021/08/08 05:27:47;;;;;;;1.60;1.50;;;16.00;99.80;;;;;;6089941;23;20432;-87
2021/08/08 05:30:15;;;;;;;2.93;1.90;;;16.00;99.80;;;;;;6089525;23;20493;-86
2021/08/08 05:32:43;;;;;;;2.30;2.10;;;16.00;99.80;;;;;;6091742;23;21051;-86
2021/08/08 05:35:12;;;;;;;1.73;1.63;;;16.10;99.80;;;;;;6091840;23;20448;-87
2021/08/08 05:37:40;;;;;;;3.53;1.90;;;16.10;99.80;;;;;;6091993;23;20437;-87
2021/08/08 05:40:13;;;;;;;2.40;2.20;;;16.10;99.80;;;;;;6090374;23;20440;-87
2021/08/08 05:42:47;;;;;;;2.23;2.03;;;16.10;99.80;;;;;;6091579;23;21027;-86
2021/08/08 05:45:15;;;;;;;2.73;2.20;;;16.10;99.80;;;;;;6091494;23;20920;-87
2021/08/08 05:47:43;;;;;;;4.47;1.90;;;;;;;;;;6090783;23;20444;-87
2021/08/08 05:50:17;;;;;;;2.80;2.60;;;16.40;99.80;;;;;;6090136;23;20438;-87
2021/08/08 05:52:52;;;;;;;2.30;2.10;;;16.50;99.80;;;;;;6084815;23;20522;-87
2021/08/08 05:55:22;;;;;;;3.23;1.87;;;16.70;99.80;;;;;;6079037;23;20530;-86
2021/08/08 05:57:53;;;;;;;2.30;2.10;;;16.80;99.80;;;;;;6110049;23;20438;-86
2021/08/08 06:00:27;;;;;;;2.13;2.03;;;16.90;99.80;;;;;;6090960;23;20440;-87
2021/08/08 06:02:56;;;;;;;2.10;1.97;;;;;;;;;;6093340;23;20519;-87
2021/08/08 06:05:30;;;;;;;3.20;2.03;;;16.90;99.80;;;;;;6089594;23;20493;-89
2021/08/08 06:07:59;;;;;;;3.87;2.00;;;17.00;99.80;;;;;;6096875;23;20428;-88
2021/08/08 06:10:31;;;;;;;2.60;2.27;;;17.00;99.80;;;;;;6090974;23;20445;-88
2021/08/08 06:12:59;;;;;;;2.43;2.23;;;17.00;99.80;;;;;;6091493;23;20446;-87
2021/08/08 06:15:27;;;;;;;3.57;1.97;;;17.00;99.80;;;;;;6092192;23;20469;-88
2021/08/08 06:17:56;;;;;;;3.50;1.70;;;17.00;99.80;;;;;;6092544;23;20941;-88
2021/08/08 06:20:24;;;;;;;3.97;2.33;;;17.10;99.80;;;;;;6092098;23;20513;-88
2021/08/08 06:22:52;;;;;;;2.77;2.50;;;17.10;99.80;;;;;;6091421;23;20463;-88
2021/08/08 06:25:21;;;;;;;5.57;3.83;;;17.10;99.80;;;;;;6092301;23;20437;-89
2021/08/08 06:27:50;;;;;;;2.80;2.50;;;17.10;99.80;;;;;;6092836;23;20438;-89
2021/08/08 06:30:19;;;;;;;3.10;2.30;;;;;;;;;;6093019;23;20520;-88
2021/08/08 06:32:47;;;;;;;2.63;2.37;;;17.30;99.80;;;;;;6091828;23;20449;-89
2021/08/08 06:35:15;;;;;;;2.43;2.23;;;17.40;99.80;;;;;;6091767;23;20447;-88
2021/08/08 06:37:44;;;;;;;3.83;2.60;;;17.60;99.80;;;;;;6091388;23;20927;-87
2021/08/08 06:40:14;;;;;;;3.50;2.83;;;17.90;99.80;;;;;;6091516;23;20438;-87
2021/08/08 06:42:42;;;;;;;2.40;2.20;;;;;;;;;;6092912;23;20453;-89
2021/08/08 06:45:12;;;;;;;3.30;2.60;;;17.90;99.80;;;;;;6092544;23;20489;-88
2021/08/08 06:47:40;;;;;;;2.67;2.47;;;18.00;99.80;;;;;;6092385;23;20438;-89
2021/08/08 06:50:09;;;;;;;2.30;2.20;;;17.90;99.80;;;;;;6092560;23;20727;-88
2021/08/08 06:52:37;;;;;;;3.40;2.27;;;17.90;99.80;;;;;;6092056;23;20469;-89
2021/08/08 06:55:05;;;;;;;3.03;2.23;;;18.00;99.80;;;;;;6092499;23;20442;-88
2021/08/08 06:57:34;;;;;;;5.17;2.43;;;;;;;;;;6092633;23;20506;-88
2021/08/08 07:00:06;;;;;;;5.40;2.60;;;18.20;99.80;;;;;;6092153;23;20517;-88
2021/08/08 07:02:35;;;;;;;2.70;2.50;;;18.30;99.80;;;;;;6091257;23;20974;-88
2021/08/08 07:05:05;;;;;;;3.77;3.17;;;18.30;99.80;;;;;;6092233;23;20809;-88
2021/08/08 07:07:33;;;;;;;4.20;2.37;;;18.20;99.80;;;;;;6092303;23;20521;-88
2021/08/08 07:10:02;;;;;;;4.27;2.57;;;18.10;99.80;;;;;;6091863;23;20502;-88
2021/08/08 07:12:30;;;;;;;3.80;3.23;;;17.90;99.80;;;;;;6092955;23;20446;-89
2021/08/08 07:14:58;;;;;;;3.10;2.80;;;17.90;99.80;;;;;;6093283;23;20440;-88
2021/08/08 07:17:26;;;;;;;3.73;3.40;;;;;;;;;;6120697;23;21040;-88
2021/08/08 07:19:55;;;;;;;3.40;2.40;;;17.90;99.80;;;;;;6092498;23;20443;-87
2021/08/08 07:22:24;;;;;;;3.60;2.80;;;;;;;;;;6092540;23;20523;-87
2021/08/08 07:24:52;;;;;;;4.70;3.37;;;18.10;99.80;;;;;;6092283;23;20462;-88
2021/08/08 07:27:20;;;;;;;2.97;2.77;;;18.20;99.80;;;;;;6091923;23;20750;-88
2021/08/08 07:29:49;;;;;;;16.73;3.00;;;;;;;;;;6091714;23;20502;-88
2021/08/08 07:32:17;;;;;;;3.23;2.80;;;18.50;99.80;;;;;;6092611;23;20534;-87
2021/08/08 07:34:45;;;;;;;2.50;2.30;;;18.60;99.80;;;;;;6092323;23;20972;-87
2021/08/08 07:37:14;;;;;;;5.00;3.20;;;18.50;99.80;;;;;;6092228;23;20443;-87
2021/08/08 07:39:42;;;;;;;4.37;2.90;;;18.50;99.80;;;;;;6092177;23;20538;-87
2021/08/08 07:42:10;;;;;;;3.20;2.90;;;;;;;;;;6092298;23;20443;-88
2021/08/08 07:44:38;;;;;;;3.50;2.63;;;18.50;99.80;;;;;;6092446;23;20431;-88
2021/08/08 07:47:07;;;;;;;3.50;2.57;;;;;;;;;;6092412;23;20454;-87
2021/08/08 07:49:35;;;;;;;4.90;2.70;;;;;;;;;;6092755;23;20981;-87
2021/08/08 07:52:03;;;;;;;4.70;3.80;;;18.70;99.80;;;;;;6092569;23;20776;-88
2021/08/08 07:54:32;;;;;;;5.50;2.50;;;18.80;99.80;;;;;;6092251;23;20435;-88
2021/08/08 07:57:01;;;;;;;4.20;2.70;;;19.00;99.80;;;;;;6093428;23;20443;-87
2021/08/08 07:59:32;;;;;;;4.27;2.70;;;19.10;99.80;;;;;;6092260;23;20544;-87
2021/08/08 08:02:00;;;;;;;3.43;2.90;;;;;;;;;;6091391;23;20518;-87
2021/08/08 08:04:29;;;;;;;2.93;2.67;;;;;;;;;;6065133;23;20771;-87
2021/08/08 08:06:57;;;;;;;3.60;2.70;;;19.30;99.80;;;;;;6107228;23;20519;-88
2021/08/08 08:09:25;;;;;;;6.83;3.03;;;19.30;99.80;;;;;;6110504;23;21015;-87
2021/08/08 08:11:55;;;;;;;3.83;3.53;;;19.50;99.80;;;;;;6107814;23;20494;-87
2021/08/08 08:14:23;;;;;;;3.33;2.20;;;;;;;;;;6104731;23;20975;-88
2021/08/08 08:16:51;;;;;;;5.90;3.10;;;19.50;99.80;;;;;;6092033;23;20983;-87
2021/08/08 08:19:20;;;;;;;3.40;2.23;;;;;;;;;;6071268;23;20451;-87
2021/08/08 08:21:48;;;;;;;2.50;2.30;;;;;;;;;;6031750;23;20479;-88
2021/08/08 08:24:16;;;;;;;4.27;2.67;;;19.40;99.80;;;;;;6070081;23;20483;-87
2021/08/08 08:26:44;;;;;;;2.30;2.10;;;19.40;99.80;;;;;;6087314;23;20490;-86
2021/08/08 08:29:14;;;;;;;10.83;2.50;;;19.30;99.80;;;;;;6117647;23;20457;-87
2021/08/08 08:31:42;;;;;;;3.07;2.43;;;19.20;99.80;;;;;;6115940;23;20446;-87
2021/08/08 08:34:10;;;;;;;3.57;2.20;;;19.10;99.80;;;;;;6111651;23;20442;-87
2021/08/08 08:36:38;;;;;;;4.90;2.60;;;;;;;;;;6107409;23;20438;-87
2021/08/08 08:39:06;;;;;;;4.27;2.40;;;19.40;99.80;;;;;;6098732;23;20445;-87
2021/08/08 08:41:37;;;;;;;4.03;2.57;;;19.40;99.80;;;;;;6087329;23;21057;-86
2021/08/08 08:44:07;;;;;;;5.20;2.10;;;19.40;99.80;;;;;;6114304;23;20780;-87
2021/08/08 08:46:39;;;;;;;4.17;2.47;;;19.40;99.80;;;;;;6106979;23;20434;-87
2021/08/08 08:49:11;;;;;;;2.83;2.20;;;19.50;99.80;;;;;;6074375;23;20446;-87
2021/08/08 08:51:43;;;;;;;4.17;2.40;;;19.70;99.80;;;;;;6068292;23;20438;-87
2021/08/08 08:54:12;;;;;;;2.57;1.90;;;20.10;99.80;;;;;;6073829;23;20444;-87
2021/08/08 08:56:40;;;;;;;5.53;2.20;;;20.10;98.40;;;;;;6076120;23;20437;-86
2021/08/08 08:59:16;;;;;;;2.80;2.13;;;20.00;99.50;;;;;;6114138;23;20423;-88
2021/08/08 09:01:45;;;;;;;2.13;1.80;;;20.10;97.60;;;;;;6088349;23;20435;-87
2021/08/08 09:04:13;;;;;;;2.87;2.13;;;20.00;98.30;;;;;;6085533;23;21047;-87
2021/08/08 09:06:43;;;;;;;4.73;2.13;;;19.80;98.00;;;;;;6085072;23;20462;-87
2021/08/08 09:09:11;;;;;;;2.33;2.10;;;19.70;98.90;;;;;;6080521;23;20435;-87
2021/08/08 09:11:41;;;;;;;3.63;1.90;;;20.00;98.40;;;;;;6074682;23;20945;-86
2021/08/08 09:14:10;;;;;;;2.60;2.40;;;20.30;97.40;;;;;;6090161;23;20454;-86
2021/08/08 09:16:40;;;;;;;4.20;2.20;;;20.30;97.00;;;;;;6085721;23;20445;-88
2021/08/08 09:19:18;;;;;;;2.60;1.77;;;20.30;97.00;;;;;;6081642;23;20988;-87
2021/08/08 09:21:46;;;;;;;3.83;2.30;;;20.20;98.30;;;;;;6076538;23;20423;-86
2021/08/08 09:24:23;;;;;;;4.33;1.97;;;20.30;97.80;;;;;;6069066;23;20443;-87
2021/08/08 09:27:01;;;;;;;3.23;2.40;;;20.70;95.60;;;;;;6091864;23;20570;-87
2021/08/08 09:29:29;;;;;;;3.10;1.83;;;20.60;95.10;;;;;;6085708;23;20461;-87
2021/08/08 09:31:58;;;;;;;1.87;1.63;;;20.60;94.10;;;;;;6087983;23;20439;-87
2021/08/08 09:34:30;;;;;;;2.33;1.73;;;20.70;94.50;;;;;;6090684;23;20430;-87
2021/08/08 09:37:01;;;;;;;2.03;1.93;;;20.70;94.60;;;;;;6090684;23;20432;-88
2021/08/08 09:39:32;;;;;;;2.27;2.10;;;20.90;94.30;;;;;;6070577;23;20442;-87
2021/08/08 09:42:12;;;;;;;3.20;2.40;;;20.80;95.50;;;;;;6087181;23;20950;-88
2021/08/08 09:44:51;;;;;;;3.30;1.80;;;20.80;95.50;;;;;;6095850;23;20538;-87
2021/08/08 09:47:20;;;;;;;2.07;1.70;;;20.90;95.30;;;;;;6082321;23;20481;-87
2021/08/08 09:50:02;;;;;;;2.97;1.90;;;20.80;93.30;;;;;;6082211;23;20459;-87
2021/08/08 09:52:30;;;;;;;5.00;1.60;;;20.90;93.00;;;;;;6070723;23;20443;-87
2021/08/08 09:54:58;;;;;;;2.13;1.80;;;21.00;93.10;;;;;;6075732;23;20442;-87
2021/08/08 09:57:26;;;;;;;2.80;1.70;;;21.20;92.30;;;;;;6089000;23;20434;-87
2021/08/08 09:59:54;;;;;;;3.63;1.60;;;21.20;92.30;;;;;;6059233;23;20529;-88
2021/08/08 10:02:23;;;;;;;2.00;1.70;;;21.60;92.00;;;;;;6088129;23;20447;-86
2021/08/08 10:04:52;;;;;;;2.00;1.90;;;21.70;89.80;;;;;;6089528;23;20431;-88
2021/08/08 10:07:22;;;;;;;2.00;1.50;;;21.60;91.60;;;;;;6071897;23;20459;-87
2021/08/08 10:09:51;;;;;;;2.23;1.63;;;21.60;91.60;;;;;;6089135;23;20434;-88
2021/08/08 10:12:41;;;;;;;5.40;1.80;;;21.70;91.50;;;;;;6087069;23;21171;-88
2021/08/08 10:15:09;;;;;;;3.50;1.90;;;21.70;91.80;;;;;;6094657;23;20470;-88
2021/08/08 10:17:39;;;;;;;2.40;2.20;;;21.40;89.70;;;;;;6085932;23;20450;-88
2021/08/08 10:20:08;;;;;;;6.10;2.10;;;21.30;91.40;;;;;;6080224;23;20434;-87
2021/08/08 10:22:42;;;;;;;4.80;1.73;;;21.20;90.70;;;;;;6051542;23;20943;-87
2021/08/08 10:25:11;;;;;;;5.10;1.93;;;21.20;90.90;;;;;;6098067;23;20440;-87
2021/08/08 10:27:40;;;;;;;1.53;1.43;;;21.30;90.30;;;;;;6111820;23;20518;-87
2021/08/08 10:30:08;;;;;;;2.23;1.20;;;21.30;92.20;;;;;;6113317;23;20442;-88
2021/08/08 10:32:37;;;;;;;1.87;1.40;;;21.10;90.30;;;;;;6108679;23;20439;-87
2021/08/08 10:35:13;;;;;;;9.03;1.83;;;20.90;92.90;;;;;;6102396;23;20457;-86
2021/08/08 10:37:43;;;;;;;3.13;1.90;;;20.90;92.30;;;;;;6108154;23;20441;-88
2021/08/08 10:40:13;;;;;;;7.50;2.23;;;20.90;92.30;;;;;;6113254;23;20434;-87
2021/08/08 10:42:42;;;;;;;2.37;2.00;;;21.10;92.80;;;;;;6116976;23;20431;-87
2021/08/08 10:45:23;;;;;;;2.30;1.40;;;21.30;91.30;;;;;;6116403;23;20928;-87
2021/08/08 10:47:56;;;;;;;4.40;2.13;;;21.30;90.50;;;;;;6118594;23;20774;-87
2021/08/08 10:50:34;;;;;;;3.67;1.60;;;21.50;91.40;;;;;;6107815;23;20441;-88
2021/08/08 10:53:04;;;;;;;4.17;1.80;;;21.50;90.20;;;;;;6103893;23;20436;-88
2021/08/08 10:55:35;;;;;;;4.20;2.07;;;21.40;90.20;;;;;;6102646;23;20446;-87
2021/08/08 10:58:14;;;;;;;3.10;1.93;;;21.30;90.40;;;;;;6115328;23;20526;-87
2021/08/08 11:00:43;;;;;;;1.87;1.50;;;21.30;90.50;;;;;;6084472;23;20473;-87
2021/08/08 11:03:13;;;;;;;3.30;1.93;;;21.40;91.20;;;;;;6091972;23;20557;-87
2021/08/08 11:05:42;;;;;;;2.23;1.53;;;21.60;88.50;;;;;;6093660;23;21164;-87
2021/08/08 11:08:13;;;;;;;2.93;1.83;;;21.60;88.50;;;;;;6100651;23;20436;-87
2021/08/08 11:10:43;;;;;;;4.60;2.00;;;21.80;88.80;;;;;;6117386;23;20448;-88
2021/08/08 11:13:22;;;;;;;3.43;2.27;;;22.00;88.50;;;;;;6131280;23;20440;-88
2021/08/08 11:15:52;;;;;;;4.13;1.60;;;22.10;87.90;;;;;;6117819;23;20434;-87
2021/08/08 11:18:30;;;;;;;1.40;1.30;;;22.10;87.90;;;;;;6119134;23;20439;-88
2021/08/08 11:20:58;;;;;;;4.07;2.00;;;22.20;88.60;;;;;;6118763;23;20441;-88
2021/08/08 11:23:30;;;;;;;2.60;1.57;;;22.40;88.40;;;;;;6105030;23;20458;-88
2021/08/08 11:29:56;;;;;;;1.83;1.73;;;22.30;86.90;;;;;;6073881;23;20426;-87
2021/08/08 11:32:28;;;;;;;5.30;1.80;;;22.20;87.90;;;;;;6071291;23;20447;-86
2021/08/08 11:35:02;;;;;;;2.90;1.80;;;22.20;87.90;;;;;;6114707;23;20966;-87
2021/08/08 11:37:31;;;;;;;2.77;1.87;;;21.80;88.10;;;;;;6115027;23;20771;-87
2021/08/08 11:40:01;;;;;;;2.47;2.00;;;21.80;89.00;;;;;;6102649;23;20441;-86
2021/08/08 11:42:32;;;;;;;2.00;1.60;;;21.80;88.90;;;;;;6124406;23;20955;-86
2021/08/08 11:45:01;;;;;;;5.27;1.93;;;22.10;89.10;;;;;;6097661;23;20513;-85
2021/08/08 11:47:29;;;;;;;2.80;1.50;;;22.40;88.50;;;;;;6112247;23;20435;-86
2021/08/08 11:49:58;;;;;;;1.67;1.33;;;22.50;85.60;;;;;;6084941;23;20991;-85
2021/08/08 11:52:26;;;;;;;2.50;1.93;;;22.50;85.60;;;;;;6104990;23;20445;-86
2021/08/08 11:55:02;;;;;;;3.30;2.07;;;22.60;86.60;;;;;;6109387;23;20434;-86
2021/08/08 11:57:31;;;;;;;1.73;1.60;;;22.40;85.60;;;;;;6106736;23;20438;-86
2021/08/08 12:00:00;;;;;;;2.63;1.87;;;22.00;88.00;;;;;;6114401;23;20446;-85
2021/08/08 12:02:29;;;;;;;4.20;1.63;;;21.70;89.40;;;;;;6115038;23;20439;-86
2021/08/08 12:04:58;;;;;;;2.43;1.70;;;21.70;89.40;;;;;;6108435;23;20434;-85
2021/08/08 12:07:29;;;;;;;1.80;1.43;;;21.90;87.40;;;;;;6100048;23;20450;-87
2021/08/08 12:09:59;;;;;;;2.60;1.63;;;22.20;86.90;;;;;;6100951;23;20921;-86
2021/08/08 12:12:35;;;;;;;1.77;1.20;;;22.30;86.40;;;;;;6110017;23;20529;-86
2021/08/08 12:15:06;;;;;;;4.40;1.73;;;22.20;87.10;;;;;;6108913;23;20813;-86
2021/08/08 12:17:34;;;;;;;5.80;1.60;;;22.10;87.60;;;;;;6081462;23;20424;-86
2021/08/08 12:20:10;;;;;;;6.37;1.70;;;;;;;;;;6090112;23;21019;-86
2021/08/08 12:22:39;;;;;;;4.20;1.63;;;;;;;;;;6053811;23;21010;-87
2021/08/08 12:25:08;;;;;;;1.40;1.30;;;;;;;;;;6083447;23;20447;-86
2021/08/08 12:27:39;;;;;;;2.30;1.30;;;;;;;;;;6103811;23;20818;-87
2021/08/08 12:30:08;;;;;;;1.20;1.10;;;;;;;;;;6116887;23;21367;-87
2021/08/08 12:32:38;;;;;;;3.13;1.50;;;;;;;;;;6118994;23;20517;-86
2021/08/08 12:35:07;;;;;;;2.63;1.93;;;;;;;;;;6115703;23;20455;-85
2021/08/08 12:37:36;;;;;;;4.57;1.60;;;;;;;;;;6094496;23;20435;-87
2021/08/08 12:40:11;;;;;;;2.83;1.43;;;;;;;;;;6094092;23;20506;-86
2021/08/08 12:42:41;;;;;;;2.47;1.50;;;;;;;;;;6091361;23;20442;-87
2021/08/08 12:45:12;;;;;;;3.87;1.70;;;26.90;72.30;;;;;;6122022;23;20438;-86
2021/08/08 12:47:45;;;;;;;2.90;1.87;;;26.20;75.00;;;;;;6091436;23;20949;-87
2021/08/08 12:50:16;;;;;;;2.23;1.80;;;25.40;78.50;;;;;;6095192;23;21034;-86
2021/08/08 12:52:44;;;;;;;3.10;2.07;;;24.50;79.20;;;;;;6090725;23;20439;-87
2021/08/08 12:55:13;;;;;;;2.17;1.97;;;23.80;81.60;;;;;;6077809;23;20442;-85
2021/08/08 12:57:43;;;;;;;2.93;2.07;;;23.70;84.20;;;;;;6105797;23;20434;-87
2021/08/08 13:00:14;;;;;;;2.00;1.63;;;24.30;81.30;;;;;;6120997;23;20514;-87
2021/08/08 13:02:48;;;;;;;1.97;1.53;;;24.50;83.20;;;;;;6120385;23;20449;-86
2021/08/08 13:05:17;;;;;;;1.90;1.70;;;24.70;81.10;;;;;;6112636;23;20766;-87
2021/08/08 13:07:46;;;;;;;7.60;1.73;;;24.70;81.10;;;;;;6119813;23;20438;-87
2021/08/08 13:10:14;;;;;;;1.83;1.73;;;24.30;82.40;;;;;;6121201;23;20520;-87
2021/08/08 13:12:44;;;;;;;2.20;1.80;;;24.00;82.00;;;;;;6131599;23;20457;-88
2021/08/08 13:15:14;;;;;;;5.73;2.43;;;24.00;82.10;;;;;;6123196;23;20451;-87
2021/08/08 13:17:43;;;;;;;2.93;1.93;;;24.00;82.10;;;;;;6090439;23;20463;-87